createdAt,value
2022-12-18T00:00:21.742Z,-4.80
2022-12-18T00:05:23.516Z,-4.90
2022-12-18T00:10:25.323Z,-4.60
2022-12-18T00:15:27.084Z,-4.80
2022-12-18T00:20:28.901Z,-5.00
2022-12-18T00:25:30.648Z,-5.10
2022-12-18T00:30:32.444Z,-5.20
2022-12-18T00:35:34.455Z,-5.30
2022-12-18T00:40:36.287Z,-5.40
2022-12-18T00:45:38.282Z,-5.20
2022-12-18T00:50:40.129Z,-5.20
2022-12-18T00:55:42.458Z,-5.20
2022-12-18T01:00:44.728Z,-5.30
2022-12-18T01:05:46.569Z,-5.30
2022-12-18T01:10:48.464Z,-5.40
2022-12-18T01:15:51.529Z,-5.30
2022-12-18T01:20:53.288Z,-5.40
2022-12-18T01:25:55.043Z,-5.30
2022-12-18T01:30:56.780Z,-5.30
2022-12-18T01:35:58.543Z,-5.30
2022-12-18T01:41:01.994Z,-5.30
2022-12-18T01:46:04.269Z,-5.20
2022-12-18T01:51:07.279Z,-5.30
2022-12-18T01:56:13.272Z,-5.40
2022-12-18T02:01:15.393Z,-5.50
2022-12-18T02:06:33.224Z,-5.40
2022-12-18T02:12:02.988Z,-5.40
2022-12-18T02:17:21.987Z,-5.40
2022-12-18T02:22:51.764Z,-5.30
2022-12-18T02:27:55.602Z,-5.30
2022-12-18T02:32:59.873Z,-5.50
2022-12-18T02:38:06.827Z,-5.40
2022-12-18T02:43:15.302Z,-5.70
2022-12-18T02:48:36.012Z,-5.70
2022-12-18T02:53:41.107Z,-5.70
2022-12-18T02:59:01.818Z,-5.70
2022-12-18T03:04:23.614Z,-5.70
2022-12-18T03:09:41.667Z,-5.70
2022-12-18T03:14:50.875Z,-5.70
2022-12-18T03:19:57.112Z,-5.70
2022-12-18T03:25:01.670Z,-5.70
2022-12-18T03:30:09.960Z,-5.70
2022-12-18T03:35:17.901Z,-5.70
2022-12-18T03:40:26.347Z,-5.80
2022-12-18T03:45:39.052Z,-5.80
2022-12-18T03:50:43.634Z,-5.80
2022-12-18T03:55:46.554Z,-5.90
2022-12-18T04:00:51.668Z,-6.00
2022-12-18T04:05:55.521Z,-5.90
2022-12-18T04:10:57.334Z,-6.00
2022-12-18T04:15:59.156Z,-6.10
2022-12-18T04:21:01.047Z,-6.10
2022-12-18T04:26:02.851Z,-6.10
2022-12-18T04:31:05.044Z,-6.10
2022-12-18T04:36:07.231Z,-6.20
2022-12-18T04:41:09.146Z,-6.30
2022-12-18T04:46:11.190Z,-6.30
2022-12-18T04:51:13.196Z,-6.10
2022-12-18T04:56:16.591Z,-6.10
2022-12-18T05:01:19.469Z,-6.10
2022-12-18T05:06:21.366Z,-6.20
2022-12-18T05:11:23.352Z,-6.20
2022-12-18T05:16:25.344Z,-5.90
2022-12-18T05:21:27.220Z,-6.00
2022-12-18T05:26:29.022Z,-6.00
2022-12-18T05:31:34.579Z,-5.90
2022-12-18T05:36:39.405Z,-6.00
2022-12-18T05:41:41.245Z,-6.10
2022-12-18T05:46:43.471Z,-6.10
2022-12-18T05:51:45.386Z,-6.10
2022-12-18T05:56:49.071Z,-6.20
2022-12-18T06:01:51.131Z,-6.10
2022-12-18T06:06:53.040Z,-6.30
2022-12-18T06:11:54.799Z,-6.30
2022-12-18T06:16:56.676Z,-6.30
2022-12-18T06:21:59.927Z,-6.40
2022-12-18T06:27:01.738Z,-6.30
2022-12-18T06:32:03.800Z,-6.40
2022-12-18T06:37:05.655Z,-6.40
2022-12-18T06:42:07.438Z,-6.40
2022-12-18T06:47:09.267Z,-6.40
2022-12-18T06:52:11.084Z,-6.30
2022-12-18T06:57:13.081Z,-6.10
2022-12-18T07:02:15.518Z,-5.90
2022-12-18T07:07:17.604Z,-6.10
2022-12-18T07:12:19.616Z,-6.10
2022-12-18T07:17:21.379Z,-6.10
2022-12-18T07:22:23.173Z,-6.00
2022-12-18T07:27:24.955Z,-5.80
2022-12-18T07:32:26.838Z,-5.90
2022-12-18T07:37:29.161Z,-5.70
2022-12-18T07:42:33.783Z,-5.80
2022-12-18T07:47:37.280Z,-5.70
2022-12-18T07:52:39.003Z,-5.90
2022-12-18T07:58:00.906Z,-5.70
2022-12-18T08:03:02.854Z,-5.40
2022-12-18T08:08:04.777Z,-5.30
2022-12-18T08:13:06.932Z,-5.40
2022-12-18T08:18:13.925Z,-5.40
2022-12-18T08:23:16.108Z,-5.30
2022-12-18T08:28:18.077Z,-5.20
2022-12-18T08:33:19.854Z,-5.20
2022-12-18T08:38:21.913Z,-4.90
2022-12-18T08:43:42.380Z,-4.80
2022-12-18T08:48:44.742Z,-4.70
2022-12-18T08:53:47.017Z,-4.50
2022-12-18T08:58:51.783Z,-4.20
2022-12-18T09:03:53.727Z,-3.90
2022-12-18T09:08:55.568Z,-3.80
2022-12-18T09:13:57.824Z,-3.60
2022-12-18T09:19:00.906Z,-3.50
2022-12-18T09:24:02.887Z,-3.30
2022-12-18T09:29:05.480Z,-3.20
2022-12-18T09:34:07.615Z,-3.10
2022-12-18T09:39:09.546Z,-3.00
2022-12-18T09:44:45.386Z,-2.90
2022-12-18T09:49:51.811Z,-2.90
2022-12-18T09:55:05.962Z,-3.00
2022-12-18T10:00:18.476Z,-2.90
2022-12-18T10:06:00.416Z,-2.80
2022-12-18T10:11:32.070Z,-2.70
2022-12-18T10:16:40.924Z,-2.50
2022-12-18T10:21:54.657Z,-2.50
2022-12-18T10:27:12.330Z,-2.40
2022-12-18T10:32:28.984Z,-2.40
2022-12-18T10:37:31.192Z,-2.30
2022-12-18T10:42:32.955Z,-2.20
2022-12-18T10:47:35.407Z,-2.20
2022-12-18T10:52:42.058Z,-2.20
2022-12-18T10:57:46.986Z,-2.00
2022-12-18T11:02:49.101Z,-1.90
2022-12-18T11:07:52.563Z,-1.80
2022-12-18T11:12:54.438Z,-1.80
2022-12-18T11:17:56.475Z,-1.70
2022-12-18T11:23:04.544Z,-1.60
2022-12-18T11:28:37.907Z,-1.60
2022-12-18T11:33:58.466Z,-1.50
2022-12-18T11:39:18.466Z,-1.50
2022-12-18T11:44:27.854Z,-1.40
2022-12-18T11:49:37.163Z,-1.40
2022-12-18T11:54:38.974Z,-1.40
2022-12-18T12:00:13.379Z,-1.30
2022-12-18T12:05:20.804Z,-1.30
2022-12-18T12:10:37.944Z,-1.30
2022-12-18T12:15:48.421Z,-1.10
2022-12-18T12:20:59.412Z,-1.10
2022-12-18T12:26:20.189Z,-1.00
2022-12-18T12:31:37.014Z,-1.00
2022-12-18T12:36:49.918Z,-0.90
2022-12-18T12:42:10.933Z,-0.80
2022-12-18T12:47:31.555Z,-0.90
2022-12-18T12:52:33.315Z,-0.70
2022-12-18T12:57:42.508Z,-0.60
2022-12-18T13:03:15.240Z,-0.50
2022-12-18T13:08:26.544Z,-0.40
2022-12-18T13:13:50.548Z,-0.30
2022-12-18T13:18:55.365Z,-0.30
2022-12-18T13:24:14.907Z,-0.30
2022-12-18T13:29:42.972Z,-0.30
2022-12-18T13:34:45.248Z,-0.10
2022-12-18T13:39:47.092Z,-0.10
2022-12-18T13:44:49.309Z,-0.10
2022-12-18T13:49:51.816Z,-0.10
2022-12-18T13:55:01.416Z,0.00
2022-12-18T14:00:25.712Z,-0.10
2022-12-18T14:05:39.494Z,-0.10
2022-12-18T14:10:50.046Z,-0.10
2022-12-18T14:15:52.740Z,0.00
2022-12-18T14:20:58.382Z,0.00
2022-12-18T14:26:05.765Z,0.00
2022-12-18T14:31:22.289Z,0.00
2022-12-18T14:36:28.756Z,0.00
2022-12-18T14:41:30.711Z,0.00
2022-12-18T14:46:37.918Z,-0.10
2022-12-18T14:51:39.867Z,0.00
2022-12-18T14:56:56.172Z,-0.10
2022-12-18T15:02:22.971Z,0.00
2022-12-18T15:07:25.134Z,0.00
2022-12-18T15:12:38.762Z,0.00
2022-12-18T15:17:40.593Z,-0.10
2022-12-18T15:22:42.840Z,-0.10
2022-12-18T15:27:48.304Z,0.00
2022-12-18T15:32:52.106Z,-0.10
2022-12-18T15:37:53.915Z,-0.10
2022-12-18T15:43:15.159Z,0.10
2022-12-18T15:48:23.165Z,0.00
2022-12-18T15:53:27.514Z,0.00
2022-12-18T15:58:29.259Z,0.00
2022-12-18T16:03:31.266Z,0.00
2022-12-18T16:08:33.272Z,0.10
2022-12-18T16:13:35.050Z,0.20
2022-12-18T16:18:36.895Z,0.10
2022-12-18T16:23:39.092Z,0.20
2022-12-18T16:28:45.256Z,0.20
2022-12-18T16:33:50.040Z,0.20
2022-12-18T16:38:57.778Z,0.20
2022-12-18T16:44:00.737Z,0.20
2022-12-18T16:49:02.562Z,0.20
2022-12-18T16:54:09.651Z,0.20
2022-12-18T16:59:13.358Z,0.20
2022-12-18T17:04:17.108Z,0.20
2022-12-18T17:09:29.239Z,0.30
2022-12-18T17:14:32.245Z,0.30
2022-12-18T17:19:33.984Z,0.30
2022-12-18T17:24:36.371Z,0.40
2022-12-18T17:29:42.480Z,0.40
2022-12-18T17:34:49.060Z,0.40
2022-12-18T17:39:50.837Z,0.40
2022-12-18T17:44:52.670Z,0.40
2022-12-18T17:49:54.644Z,0.40
2022-12-18T17:54:57.359Z,0.40
2022-12-18T17:59:59.140Z,0.50
2022-12-18T18:05:00.877Z,0.50
2022-12-18T18:10:02.725Z,0.50
2022-12-18T18:15:04.865Z,0.50
2022-12-18T18:20:07.853Z,0.40
2022-12-18T18:25:10.364Z,0.40
2022-12-18T18:30:12.781Z,0.40
2022-12-18T18:35:44.673Z,0.40
2022-12-18T18:40:36.313Z,0.40
2022-12-18T18:45:38.158Z,0.40
2022-12-18T18:50:44.016Z,0.40
2022-12-18T18:55:51.699Z,0.40
2022-12-18T19:01:07.551Z,0.40
2022-12-18T19:06:14.182Z,0.40
2022-12-18T19:11:36.622Z,0.40
2022-12-18T19:16:39.339Z,0.50
2022-12-18T19:21:41.723Z,0.50
2022-12-18T19:26:43.857Z,0.50
2022-12-18T19:31:46.050Z,0.50
2022-12-18T19:36:48.224Z,0.60
2022-12-18T19:41:50.166Z,0.50
2022-12-18T19:46:52.065Z,0.60
2022-12-18T19:51:53.841Z,0.60
2022-12-18T19:56:55.593Z,0.60
2022-12-18T20:01:57.502Z,0.60
2022-12-18T20:06:59.417Z,0.70
2022-12-18T20:12:01.424Z,0.70
2022-12-18T20:17:03.549Z,0.70
2022-12-18T20:22:05.667Z,0.80
2022-12-18T20:27:12.485Z,0.80
2022-12-18T20:32:17.132Z,0.80
2022-12-18T20:37:19.047Z,0.90
2022-12-18T20:42:21.193Z,0.90
2022-12-18T20:47:23.165Z,0.90
2022-12-18T20:52:25.150Z,0.90
2022-12-18T20:57:27.159Z,0.90
2022-12-18T21:02:29.080Z,0.90
2022-12-18T21:07:30.986Z,1.00
2022-12-18T21:12:40.533Z,1.00
2022-12-18T21:17:52.658Z,1.10
2022-12-18T21:22:55.001Z,1.10
2022-12-18T21:27:59.500Z,1.20
2022-12-18T21:33:01.618Z,1.20
2022-12-18T21:38:03.863Z,1.20
2022-12-18T21:43:28.601Z,1.30
2022-12-18T21:48:30.345Z,1.30
2022-12-18T21:53:32.094Z,1.30
2022-12-18T21:58:33.836Z,1.40
2022-12-18T22:03:35.707Z,1.40
2022-12-18T22:08:41.603Z,1.40
2022-12-18T22:13:45.585Z,1.40
2022-12-18T22:18:48.023Z,1.50
2022-12-18T22:23:54.627Z,1.40
2022-12-18T22:29:17.460Z,1.50
2022-12-18T22:34:22.755Z,1.60
2022-12-18T22:39:27.420Z,1.60
2022-12-18T22:44:30.361Z,1.70
2022-12-18T22:49:32.156Z,1.70
2022-12-18T22:54:36.213Z,1.70
2022-12-18T22:59:37.997Z,1.70
2022-12-18T23:04:39.831Z,1.80
2022-12-18T23:09:41.599Z,1.80
2022-12-18T23:14:43.354Z,2.00
2022-12-18T23:19:48.980Z,2.00
2022-12-18T23:24:51.462Z,2.00
2022-12-18T23:29:53.269Z,2.20
2022-12-18T23:34:56.959Z,2.10
2022-12-18T23:39:58.873Z,2.20
2022-12-18T23:45:00.740Z,2.20
2022-12-18T23:50:07.284Z,2.30
2022-12-18T23:55:09.314Z,2.40
